sensor_id;sensor_type;location;lat;lon;timestamp;pressure;altitude;pressure_sealevel;temperature;humidity
36378;BME280;22402;42.746;23.606;2023-07-09T00:01:51;93877.78;;;16.46;100.00
36378;BME280;22402;42.746;23.606;2023-07-09T00:04:17;93866.66;;;16.36;100.00
36378;BME280;22402;42.746;23.606;2023-07-09T00:06:43;93872.91;;;16.27;100.00
36378;BME280;22402;42.746;23.606;2023-07-09T00:09:13;93878.16;;;16.27;100.00
36378;BME280;22402;42.746;23.606;2023-07-09T00:11:40;93869.00;;;16.14;100.00
36378;BME280;22402;42.746;23.606;2023-07-09T00:14:07;93869.50;;;16.10;100.00
36378;BME280;22402;42.746;23.606;2023-07-09T00:16:33;93870.31;;;16.02;100.00
36378;BME280;22402;42.746;23.606;2023-07-09T00:18:58;93867.38;;;15.97;100.00
36378;BME280;22402;42.746;23.606;2023-07-09T00:21:23;93873.97;;;15.93;100.00
36378;BME280;22402;42.746;23.606;2023-07-09T00:23:49;93872.16;;;15.85;100.00
36378;BME280;22402;42.746;23.606;2023-07-09T00:26:15;93868.22;;;15.81;100.00
36378;BME280;22402;42.746;23.606;2023-07-09T00:28:42;93869.38;;;15.79;100.00
36378;BME280;22402;42.746;23.606;2023-07-09T00:31:13;93867.25;;;15.74;100.00
36378;BME280;22402;42.746;23.606;2023-07-09T00:33:40;93871.19;;;15.70;100.00
36378;BME280;22402;42.746;23.606;2023-07-09T00:36:20;93868.84;;;15.67;100.00
36378;BME280;22402;42.746;23.606;2023-07-09T00:38:49;93867.69;;;15.61;100.00
36378;BME280;22402;42.746;23.606;2023-07-09T00:41:21;93868.34;;;15.55;100.00
36378;BME280;22402;42.746;23.606;2023-07-09T00:43:48;93868.53;;;15.54;100.00
36378;BME280;22402;42.746;23.606;2023-07-09T00:48:58;93863.75;;;15.49;100.00
36378;BME280;22402;42.746;23.606;2023-07-09T00:51:26;93858.81;;;15.46;100.00
36378;BME280;22402;42.746;23.606;2023-07-09T00:53:55;93858.50;;;15.41;100.00
36378;BME280;22402;42.746;23.606;2023-07-09T00:56:30;93859.00;;;15.36;100.00
36378;BME280;22402;42.746;23.606;2023-07-09T00:58:57;93858.50;;;15.33;100.00
36378;BME280;22402;42.746;23.606;2023-07-09T01:01:26;93859.47;;;15.32;100.00
36378;BME280;22402;42.746;23.606;2023-07-09T01:03:56;93864.41;;;15.26;100.00
36378;BME280;22402;42.746;23.606;2023-07-09T01:06:31;93859.81;;;15.20;100.00
36378;BME280;22402;42.746;23.606;2023-07-09T01:08:59;93859.63;;;15.22;100.00
36378;BME280;22402;42.746;23.606;2023-07-09T01:11:26;93861.09;;;15.16;100.00
36378;BME280;22402;42.746;23.606;2023-07-09T01:13:54;93863.22;;;15.13;100.00
36378;BME280;22402;42.746;23.606;2023-07-09T01:16:23;93872.41;;;15.09;100.00
36378;BME280;22402;42.746;23.606;2023-07-09T01:18:51;93865.00;;;15.04;100.00
36378;BME280;22402;42.746;23.606;2023-07-09T01:21:17;93868.63;;;15.03;100.00
36378;BME280;22402;42.746;23.606;2023-07-09T01:23:43;93861.72;;;15.02;100.00
36378;BME280;22402;42.746;23.606;2023-07-09T01:26:14;93872.22;;;15.02;100.00
36378;BME280;22402;42.746;23.606;2023-07-09T01:28:40;93869.09;;;14.98;100.00
36378;BME280;22402;42.746;23.606;2023-07-09T01:31:09;93853.53;;;14.97;100.00
36378;BME280;22402;42.746;23.606;2023-07-09T01:33:34;93860.25;;;14.99;100.00
36378;BME280;22402;42.746;23.606;2023-07-09T01:36:00;93858.44;;;15.00;100.00
36378;BME280;22402;42.746;23.606;2023-07-09T01:38:27;93853.03;;;15.01;100.00
36378;BME280;22402;42.746;23.606;2023-07-09T01:40:56;93857.31;;;15.02;100.00
36378;BME280;22402;42.746;23.606;2023-07-09T01:43:22;93856.47;;;15.02;100.00
36378;BME280;22402;42.746;23.606;2023-07-09T01:45:49;93856.31;;;15.03;100.00
36378;BME280;22402;42.746;23.606;2023-07-09T01:48:16;93853.84;;;15.02;100.00
36378;BME280;22402;42.746;23.606;2023-07-09T01:50:42;93850.56;;;15.00;100.00
36378;BME280;22402;42.746;23.606;2023-07-09T01:53:12;93857.78;;;14.98;100.00
36378;BME280;22402;42.746;23.606;2023-07-09T01:55:38;93855.66;;;14.93;100.00
36378;BME280;22402;42.746;23.606;2023-07-09T01:58:03;93858.06;;;14.87;100.00
36378;BME280;22402;42.746;23.606;2023-07-09T02:00:33;93870.06;;;14.89;100.00
36378;BME280;22402;42.746;23.606;2023-07-09T02:03:00;93868.25;;;14.90;100.00
36378;BME280;22402;42.746;23.606;2023-07-09T02:05:29;93870.22;;;14.79;100.00
36378;BME280;22402;42.746;23.606;2023-07-09T02:07:55;93873.47;;;14.73;100.00
36378;BME280;22402;42.746;23.606;2023-07-09T02:10:21;93867.91;;;14.76;100.00
36378;BME280;22402;42.746;23.606;2023-07-09T02:12:47;93879.03;;;14.70;100.00
36378;BME280;22402;42.746;23.606;2023-07-09T02:15:13;93879.41;;;14.75;100.00
36378;BME280;22402;42.746;23.606;2023-07-09T02:17:39;93867.41;;;14.73;100.00
36378;BME280;22402;42.746;23.606;2023-07-09T02:20:06;93872.47;;;14.74;100.00
36378;BME280;22402;42.746;23.606;2023-07-09T02:22:33;93871.16;;;14.70;100.00
36378;BME280;22402;42.746;23.606;2023-07-09T02:24:59;93870.13;;;14.63;100.00
36378;BME280;22402;42.746;23.606;2023-07-09T02:27:25;93875.38;;;14.63;100.00
36378;BME280;22402;42.746;23.606;2023-07-09T02:29:51;93880.00;;;14.61;100.00
36378;BME280;22402;42.746;23.606;2023-07-09T02:32:21;93884.25;;;14.62;100.00
36378;BME280;22402;42.746;23.606;2023-07-09T02:34:48;93887.66;;;14.54;100.00
36378;BME280;22402;42.746;23.606;2023-07-09T02:37:20;93890.13;;;14.56;100.00
36378;BME280;22402;42.746;23.606;2023-07-09T02:39:45;93891.53;;;14.50;100.00
36378;BME280;22402;42.746;23.606;2023-07-09T02:42:13;93898.31;;;14.53;100.00
36378;BME280;22402;42.746;23.606;2023-07-09T02:44:40;93895.97;;;14.50;100.00
36378;BME280;22402;42.746;23.606;2023-07-09T02:49:42;93892.66;;;14.48;100.00
36378;BME280;22402;42.746;23.606;2023-07-09T02:52:08;93901.22;;;14.50;100.00
36378;BME280;22402;42.746;23.606;2023-07-09T02:54:33;93905.16;;;14.46;100.00
36378;BME280;22402;42.746;23.606;2023-07-09T02:56:59;93895.63;;;14.45;100.00
36378;BME280;22402;42.746;23.606;2023-07-09T02:59:24;93895.28;;;14.48;100.00
36378;BME280;22402;42.746;23.606;2023-07-09T03:01:52;93903.34;;;14.46;100.00
36378;BME280;22402;42.746;23.606;2023-07-09T03:04:17;93905.47;;;14.43;100.00
36378;BME280;22402;42.746;23.606;2023-07-09T03:06:45;93901.16;;;14.42;100.00
36378;BME280;22402;42.746;23.606;2023-07-09T03:09:11;93908.09;;;14.43;100.00
36378;BME280;22402;42.746;23.606;2023-07-09T03:11:37;93912.47;;;14.42;100.00
36378;BME280;22402;42.746;23.606;2023-07-09T03:14:03;93913.94;;;14.36;100.00
36378;BME280;22402;42.746;23.606;2023-07-09T03:16:30;93908.53;;;14.38;100.00
36378;BME280;22402;42.746;23.606;2023-07-09T03:18:56;93914.41;;;14.32;100.00
36378;BME280;22402;42.746;23.606;2023-07-09T03:21:23;93905.41;;;14.34;100.00
36378;BME280;22402;42.746;23.606;2023-07-09T03:23:50;93922.78;;;14.35;100.00
36378;BME280;22402;42.746;23.606;2023-07-09T03:26:15;93914.22;;;14.33;100.00
36378;BME280;22402;42.746;23.606;2023-07-09T03:28:41;93917.84;;;14.32;100.00
36378;BME280;22402;42.746;23.606;2023-07-09T03:31:08;93910.34;;;14.38;100.00
36378;BME280;22402;42.746;23.606;2023-07-09T03:33:33;93921.78;;;14.36;100.00
36378;BME280;22402;42.746;23.606;2023-07-09T03:35:59;93914.59;;;14.39;100.00
36378;BME280;22402;42.746;23.606;2023-07-09T03:38:24;93908.22;;;14.41;100.00
36378;BME280;22402;42.746;23.606;2023-07-09T03:40:54;93915.47;;;14.47;100.00
36378;BME280;22402;42.746;23.606;2023-07-09T03:43:20;93906.91;;;14.45;100.00
36378;BME280;22402;42.746;23.606;2023-07-09T03:45:46;93903.84;;;14.50;100.00
36378;BME280;22402;42.746;23.606;2023-07-09T03:48:13;93906.78;;;14.47;100.00
36378;BME280;22402;42.746;23.606;2023-07-09T03:50:39;93905.78;;;14.48;100.00
36378;BME280;22402;42.746;23.606;2023-07-09T03:53:06;93914.72;;;14.55;100.00
36378;BME280;22402;42.746;23.606;2023-07-09T03:55:32;93919.81;;;14.56;100.00
36378;BME280;22402;42.746;23.606;2023-07-09T03:57:57;93928.84;;;14.62;100.00
36378;BME280;22402;42.746;23.606;2023-07-09T04:00:23;93924.28;;;14.64;100.00
36378;BME280;22402;42.746;23.606;2023-07-09T04:02:50;93926.94;;;14.72;100.00
36378;BME280;22402;42.746;23.606;2023-07-09T04:05:16;93934.19;;;14.78;100.00
36378;BME280;22402;42.746;23.606;2023-07-09T04:07:43;93934.19;;;14.78;100.00
36378;BME280;22402;42.746;23.606;2023-07-09T04:10:08;93927.63;;;14.82;100.00
36378;BME280;22402;42.746;23.606;2023-07-09T04:12:34;93928.31;;;14.85;100.00
36378;BME280;22402;42.746;23.606;2023-07-09T04:15:02;93926.00;;;14.90;100.00
36378;BME280;22402;42.746;23.606;2023-07-09T04:17:28;93933.25;;;14.96;100.00
36378;BME280;22402;42.746;23.606;2023-07-09T04:19:53;93932.94;;;14.99;100.00
36378;BME280;22402;42.746;23.606;2023-07-09T04:22:19;93936.41;;;14.99;100.00
36378;BME280;22402;42.746;23.606;2023-07-09T04:24:44;93936.41;;;15.08;100.00
36378;BME280;22402;42.746;23.606;2023-07-09T04:27:11;93941.88;;;15.14;100.00
36378;BME280;22402;42.746;23.606;2023-07-09T04:29:39;93948.13;;;15.21;100.00
36378;BME280;22402;42.746;23.606;2023-07-09T04:32:15;93946.50;;;15.37;100.00
36378;BME280;22402;42.746;23.606;2023-07-09T04:34:41;93951.47;;;15.48;100.00
36378;BME280;22402;42.746;23.606;2023-07-09T04:37:08;93953.47;;;15.62;100.00
36378;BME280;22402;42.746;23.606;2023-07-09T04:39:34;93959.06;;;15.76;100.00
36378;BME280;22402;42.746;23.606;2023-07-09T04:42:00;93952.50;;;15.88;100.00
36378;BME280;22402;42.746;23.606;2023-07-09T04:44:26;93952.53;;;16.04;100.00
36378;BME280;22402;42.746;23.606;2023-07-09T04:46:51;93956.13;;;16.20;100.00
36378;BME280;22402;42.746;23.606;2023-07-09T04:49:19;93962.00;;;16.30;100.00
36378;BME280;22402;42.746;23.606;2023-07-09T04:51:45;93951.81;;;16.43;100.00
36378;BME280;22402;42.746;23.606;2023-07-09T04:54:10;93957.88;;;16.52;100.00
36378;BME280;22402;42.746;23.606;2023-07-09T04:56:36;93959.50;;;16.61;100.00
36378;BME280;22402;42.746;23.606;2023-07-09T04:59:02;93950.44;;;16.72;100.00
36378;BME280;22402;42.746;23.606;2023-07-09T05:01:28;93956.00;;;16.85;100.00
36378;BME280;22402;42.746;23.606;2023-07-09T05:03:54;93950.72;;;16.93;100.00
36378;BME280;22402;42.746;23.606;2023-07-09T05:06:20;93954.63;;;17.05;100.00
36378;BME280;22402;42.746;23.606;2023-07-09T05:08:47;93956.22;;;17.15;100.00
36378;BME280;22402;42.746;23.606;2023-07-09T05:11:13;93958.16;;;17.21;100.00
36378;BME280;22402;42.746;23.606;2023-07-09T05:13:39;93971.94;;;17.31;100.00
36378;BME280;22402;42.746;23.606;2023-07-09T05:16:04;93958.72;;;17.39;100.00
36378;BME280;22402;42.746;23.606;2023-07-09T05:18:30;93961.63;;;17.52;100.00
36378;BME280;22402;42.746;23.606;2023-07-09T05:20:56;93949.00;;;17.71;100.00
36378;BME280;22402;42.746;23.606;2023-07-09T05:23:23;93949.03;;;17.94;100.00
36378;BME280;22402;42.746;23.606;2023-07-09T05:25:49;93947.53;;;18.14;100.00
36378;BME280;22402;42.746;23.606;2023-07-09T05:28:15;93960.53;;;18.39;100.00
36378;BME280;22402;42.746;23.606;2023-07-09T05:30:42;93956.38;;;18.59;100.00
36378;BME280;22402;42.746;23.606;2023-07-09T05:33:07;93961.13;;;18.79;100.00
36378;BME280;22402;42.746;23.606;2023-07-09T05:35:33;93961.22;;;19.00;98.11
36378;BME280;22402;42.746;23.606;2023-07-09T05:37:58;93961.50;;;19.20;96.41
36378;BME280;22402;42.746;23.606;2023-07-09T05:40:23;93962.56;;;19.41;94.78
36378;BME280;22402;42.746;23.606;2023-07-09T05:42:49;93965.88;;;19.64;94.02
36378;BME280;22402;42.746;23.606;2023-07-09T05:45:15;93969.00;;;19.89;92.93
36378;BME280;22402;42.746;23.606;2023-07-09T05:47:41;93965.16;;;20.13;92.03
36378;BME280;22402;42.746;23.606;2023-07-09T05:50:07;93964.16;;;20.36;91.17
36378;BME280;22402;42.746;23.606;2023-07-09T05:52:32;93972.09;;;20.57;89.23
36378;BME280;22402;42.746;23.606;2023-07-09T05:54:58;93964.84;;;20.73;88.01
36378;BME280;22402;42.746;23.606;2023-07-09T05:57:26;93963.75;;;20.88;87.06
36378;BME280;22402;42.746;23.606;2023-07-09T05:59:51;93962.59;;;21.04;86.43
36378;BME280;22402;42.746;23.606;2023-07-09T06:02:19;93967.97;;;21.17;85.44
36378;BME280;22402;42.746;23.606;2023-07-09T06:04:46;93960.72;;;21.33;84.58
36378;BME280;22402;42.746;23.606;2023-07-09T06:07:12;93954.84;;;21.44;84.02
36378;BME280;22402;42.746;23.606;2023-07-09T06:09:39;93958.56;;;21.56;83.12
36378;BME280;22402;42.746;23.606;2023-07-09T06:12:06;93948.19;;;21.68;83.37
36378;BME280;22402;42.746;23.606;2023-07-09T06:14:32;93954.38;;;21.82;82.91
36378;BME280;22402;42.746;23.606;2023-07-09T06:16:59;93950.72;;;21.96;82.38
36378;BME280;22402;42.746;23.606;2023-07-09T06:19:25;93954.63;;;22.07;81.72
36378;BME280;22402;42.746;23.606;2023-07-09T06:21:51;93954.88;;;22.19;80.89
36378;BME280;22402;42.746;23.606;2023-07-09T06:24:16;93950.41;;;22.26;80.32
36378;BME280;22402;42.746;23.606;2023-07-09T06:26:42;93960.59;;;22.36;79.49
36378;BME280;22402;42.746;23.606;2023-07-09T06:29:07;93950.59;;;22.44;78.58
36378;BME280;22402;42.746;23.606;2023-07-09T06:31:33;93955.31;;;22.56;78.08
36378;BME280;22402;42.746;23.606;2023-07-09T06:33:58;93961.84;;;22.73;78.25
36378;BME280;22402;42.746;23.606;2023-07-09T06:36:23;93950.75;;;22.89;76.99
36378;BME280;22402;42.746;23.606;2023-07-09T06:38:49;93953.22;;;23.04;75.36
36378;BME280;22402;42.746;23.606;2023-07-09T06:41:15;93951.75;;;23.22;75.02
36378;BME280;22402;42.746;23.606;2023-07-09T06:43:40;93951.88;;;23.40;75.45
36378;BME280;22402;42.746;23.606;2023-07-09T06:46:08;93946.91;;;23.57;75.13
36378;BME280;22402;42.746;23.606;2023-07-09T06:48:35;93942.16;;;23.72;74.33
36378;BME280;22402;42.746;23.606;2023-07-09T06:51:00;93942.25;;;23.91;73.84
36378;BME280;22402;42.746;23.606;2023-07-09T06:53:28;93947.66;;;24.09;73.45
36378;BME280;22402;42.746;23.606;2023-07-09T06:55:54;93944.06;;;24.28;72.56
36378;BME280;22402;42.746;23.606;2023-07-09T06:58:27;93939.44;;;24.49;71.87
36378;BME280;22402;42.746;23.606;2023-07-09T07:00:54;93941.31;;;24.67;71.40
36378;BME280;22402;42.746;23.606;2023-07-09T07:03:21;93942.78;;;24.88;70.15
36378;BME280;22402;42.746;23.606;2023-07-09T07:05:50;93941.28;;;25.10;69.36
36378;BME280;22402;42.746;23.606;2023-07-09T07:08:17;93943.56;;;25.32;68.73
36378;BME280;22402;42.746;23.606;2023-07-09T07:10:43;93935.91;;;25.54;67.35
36378;BME280;22402;42.746;23.606;2023-07-09T07:13:09;93934.41;;;25.76;66.40
36378;BME280;22402;42.746;23.606;2023-07-09T07:15:36;93930.22;;;25.99;64.87
36378;BME280;22402;42.746;23.606;2023-07-09T07:18:02;93932.16;;;26.22;64.26
36378;BME280;22402;42.746;23.606;2023-07-09T07:20:29;93930.56;;;26.44;63.08
36378;BME280;22402;42.746;23.606;2023-07-09T07:22:54;93927.94;;;26.68;62.09
36378;BME280;22402;42.746;23.606;2023-07-09T07:25:20;93935.97;;;26.91;61.30
36378;BME280;22402;42.746;23.606;2023-07-09T07:27:45;93927.97;;;27.15;60.48
36378;BME280;22402;42.746;23.606;2023-07-09T07:30:11;93924.78;;;27.41;60.40
36378;BME280;22402;42.746;23.606;2023-07-09T07:32:47;93921.22;;;27.64;58.77
36378;BME280;22402;42.746;23.606;2023-07-09T07:35:14;93919.31;;;27.88;58.50
36378;BME280;22402;42.746;23.606;2023-07-09T07:37:42;93917.56;;;28.11;58.62
36378;BME280;22402;42.746;23.606;2023-07-09T07:40:09;93914.19;;;28.32;58.22
36378;BME280;22402;42.746;23.606;2023-07-09T07:42:35;93917.81;;;28.55;57.54
36378;BME280;22402;42.746;23.606;2023-07-09T07:45:01;93914.72;;;28.80;57.21
36378;BME280;22402;42.746;23.606;2023-07-09T07:47:30;93914.88;;;29.07;56.87
36378;BME280;22402;42.746;23.606;2023-07-09T07:49:56;93910.66;;;29.33;56.16
36378;BME280;22402;42.746;23.606;2023-07-09T07:52:22;93916.09;;;29.60;55.48
36378;BME280;22402;42.746;23.606;2023-07-09T07:54:47;93908.59;;;29.84;54.84
36378;BME280;22402;42.746;23.606;2023-07-09T07:57:13;93908.31;;;30.08;54.46
36378;BME280;22402;42.746;23.606;2023-07-09T07:59:39;93918.28;;;30.34;53.58
36378;BME280;22402;42.746;23.606;2023-07-09T08:02:06;93913.66;;;30.62;53.24
36378;BME280;22402;42.746;23.606;2023-07-09T08:04:32;93915.25;;;30.90;53.11
36378;BME280;22402;42.746;23.606;2023-07-09T08:06:58;93902.00;;;31.26;52.13
36378;BME280;22402;42.746;23.606;2023-07-09T08:09:24;93901.88;;;31.53;50.67
36378;BME280;22402;42.746;23.606;2023-07-09T08:11:51;93907.38;;;31.78;49.96
36378;BME280;22402;42.746;23.606;2023-07-09T08:14:17;93911.25;;;32.03;49.24
36378;BME280;22402;42.746;23.606;2023-07-09T08:16:42;93905.34;;;32.21;48.42
36378;BME280;22402;42.746;23.606;2023-07-09T08:19:08;93893.50;;;32.38;46.71
36378;BME280;22402;42.746;23.606;2023-07-09T08:21:33;93895.44;;;32.58;46.32
36378;BME280;22402;42.746;23.606;2023-07-09T08:23:59;93890.00;;;32.83;46.27
36378;BME280;22402;42.746;23.606;2023-07-09T08:26:25;93889.19;;;33.13;45.38
36378;BME280;22402;42.746;23.606;2023-07-09T08:28:51;93893.97;;;33.42;44.46
36378;BME280;22402;42.746;23.606;2023-07-09T08:31:17;93885.50;;;33.69;43.38
36378;BME280;22402;42.746;23.606;2023-07-09T08:33:42;93884.31;;;33.96;42.71
36378;BME280;22402;42.746;23.606;2023-07-09T08:36:08;93877.16;;;34.20;41.79
36378;BME280;22402;42.746;23.606;2023-07-09T08:38:34;93887.47;;;34.53;41.58
36378;BME280;22402;42.746;23.606;2023-07-09T08:41:02;93884.25;;;34.85;41.66
36378;BME280;22402;42.746;23.606;2023-07-09T08:43:49;93888.31;;;35.17;40.81
36378;BME280;22402;42.746;23.606;2023-07-09T08:46:51;93893.94;;;35.49;39.86
36378;BME280;22402;42.746;23.606;2023-07-09T08:49:30;93895.28;;;35.76;39.12
36378;BME280;22402;42.746;23.606;2023-07-09T08:51:58;93892.94;;;35.88;39.14
36378;BME280;22402;42.746;23.606;2023-07-09T08:54:29;93888.47;;;35.97;38.23
36378;BME280;22402;42.746;23.606;2023-07-09T08:57:02;93887.84;;;36.24;38.42
36378;BME280;22402;42.746;23.606;2023-07-09T08:59:34;93886.66;;;36.49;38.02
36378;BME280;22402;42.746;23.606;2023-07-09T09:02:03;93885.69;;;36.78;37.88
36378;BME280;22402;42.746;23.606;2023-07-09T09:04:31;93893.75;;;37.16;37.42
36378;BME280;22402;42.746;23.606;2023-07-09T09:07:23;93897.53;;;37.48;36.55
36378;BME280;22402;42.746;23.606;2023-07-09T09:10:01;93895.31;;;37.77;36.03
36378;BME280;22402;42.746;23.606;2023-07-09T09:12:30;93889.38;;;38.03;35.48
36378;BME280;22402;42.746;23.606;2023-07-09T09:15:03;93885.78;;;38.30;35.13
36378;BME280;22402;42.746;23.606;2023-07-09T09:17:39;93891.06;;;38.49;34.62
36378;BME280;22402;42.746;23.606;2023-07-09T09:20:09;93891.84;;;38.63;34.00
36378;BME280;22402;42.746;23.606;2023-07-09T09:22:44;93886.00;;;38.79;33.86
36378;BME280;22402;42.746;23.606;2023-07-09T09:25:39;93882.81;;;38.99;33.32
36378;BME280;22402;42.746;23.606;2023-07-09T09:28:03;93888.41;;;39.25;33.41
36378;BME280;22402;42.746;23.606;2023-07-09T09:30:31;93889.59;;;39.33;32.54
36378;BME280;22402;42.746;23.606;2023-07-09T09:33:02;93882.91;;;39.39;32.14
36378;BME280;22402;42.746;23.606;2023-07-09T09:35:33;93884.69;;;39.52;31.73
36378;BME280;22402;42.746;23.606;2023-07-09T09:37:59;93881.22;;;39.60;31.67
36378;BME280;22402;42.746;23.606;2023-07-09T09:40:28;93885.06;;;39.68;31.10
36378;BME280;22402;42.746;23.606;2023-07-09T09:42:56;93888.69;;;39.86;30.64
36378;BME280;22402;42.746;23.606;2023-07-09T09:45:35;93888.09;;;40.06;30.61
36378;BME280;22402;42.746;23.606;2023-07-09T09:48:05;93876.41;;;40.23;29.63
36378;BME280;22402;42.746;23.606;2023-07-09T09:50:35;93885.44;;;40.41;29.85
36378;BME280;22402;42.746;23.606;2023-07-09T09:53:01;93873.09;;;40.61;28.84
36378;BME280;22402;42.746;23.606;2023-07-09T09:55:31;93876.59;;;40.79;28.95
36378;BME280;22402;42.746;23.606;2023-07-09T09:57:57;93875.44;;;41.06;28.83
36378;BME280;22402;42.746;23.606;2023-07-09T10:00:26;93877.78;;;41.34;27.91
36378;BME280;22402;42.746;23.606;2023-07-09T10:03:01;93876.69;;;41.26;28.23
36378;BME280;22402;42.746;23.606;2023-07-09T10:05:34;93881.06;;;41.01;28.42
36378;BME280;22402;42.746;23.606;2023-07-09T10:11:39;93872.38;;;41.63;27.99
36378;BME280;22402;42.746;23.606;2023-07-09T10:14:01;93869.13;;;42.00;27.18
36378;BME280;22402;42.746;23.606;2023-07-09T10:16:38;93873.03;;;42.20;27.11
36378;BME280;22402;42.746;23.606;2023-07-09T10:19:21;93869.59;;;42.31;26.46
36378;BME280;22402;42.746;23.606;2023-07-09T10:24:36;93863.69;;;42.84;25.88
36378;BME280;22402;42.746;23.606;2023-07-09T10:27:11;93851.19;;;43.07;25.28
36378;BME280;22402;42.746;23.606;2023-07-09T10:29:51;93854.16;;;43.02;25.53
36378;BME280;22402;42.746;23.606;2023-07-09T10:40:36;93845.53;;;43.24;25.11
36378;BME280;22402;42.746;23.606;2023-07-09T10:43:04;93852.66;;;43.38;24.75
36378;BME280;22402;42.746;23.606;2023-07-09T10:45:43;93847.91;;;43.59;24.75
36378;BME280;22402;42.746;23.606;2023-07-09T10:48:13;93841.38;;;43.76;24.40
36378;BME280;22402;42.746;23.606;2023-07-09T10:50:47;93841.50;;;43.67;24.32
36378;BME280;22402;42.746;23.606;2023-07-09T10:56:01;93839.91;;;44.03;24.40
36378;BME280;22402;42.746;23.606;2023-07-09T10:58:35;93837.53;;;44.30;24.23
36378;BME280;22402;42.746;23.606;2023-07-09T11:01:03;93837.03;;;44.52;23.52
36378;BME280;22402;42.746;23.606;2023-07-09T11:03:50;93829.66;;;44.69;23.25
36378;BME280;22402;42.746;23.606;2023-07-09T11:06:21;93837.97;;;44.44;23.88
36378;BME280;22402;42.746;23.606;2023-07-09T11:08:50;93832.88;;;44.18;23.65
36378;BME280;22402;42.746;23.606;2023-07-09T11:11:38;93835.38;;;44.23;23.02
36378;BME280;22402;42.746;23.606;2023-07-09T11:14:17;93832.28;;;44.37;23.31
36378;BME280;22402;42.746;23.606;2023-07-09T11:16:46;93839.81;;;44.40;23.46
36378;BME280;22402;42.746;23.606;2023-07-09T11:19:17;93824.06;;;44.12;23.63
36378;BME280;22402;42.746;23.606;2023-07-09T11:22:05;93826.06;;;43.05;23.83
36378;BME280;22402;42.746;23.606;2023-07-09T11:27:25;93835.16;;;42.01;25.13
36378;BME280;22402;42.746;23.606;2023-07-09T11:29:59;93828.63;;;41.08;26.38
36378;BME280;22402;42.746;23.606;2023-07-09T11:32:26;93829.03;;;40.71;27.33
36378;BME280;22402;42.746;23.606;2023-07-09T11:34:53;93819.25;;;41.26;26.51
36378;BME280;22402;42.746;23.606;2023-07-09T11:37:21;93822.59;;;41.70;25.76
36378;BME280;22402;42.746;23.606;2023-07-09T11:39:48;93816.00;;;41.33;26.22
36378;BME280;22402;42.746;23.606;2023-07-09T11:42:33;93825.09;;;41.07;26.39
36378;BME280;22402;42.746;23.606;2023-07-09T11:45:12;93820.59;;;41.03;26.83
36378;BME280;22402;42.746;23.606;2023-07-09T11:50:29;93811.25;;;41.12;26.80
36378;BME280;22402;42.746;23.606;2023-07-09T11:52:58;93818.81;;;41.15;26.60
36378;BME280;22402;42.746;23.606;2023-07-09T11:56:00;93812.31;;;40.21;27.59
36378;BME280;22402;42.746;23.606;2023-07-09T11:58:19;93807.53;;;39.20;28.80
36378;BME280;22402;42.746;23.606;2023-07-09T12:00:50;93801.50;;;38.70;29.97
36378;BME280;22402;42.746;23.606;2023-07-09T12:03:29;93807.91;;;39.28;28.96
36378;BME280;22402;42.746;23.606;2023-07-09T12:05:59;93816.50;;;40.44;28.08
36378;BME280;22402;42.746;23.606;2023-07-09T12:08:28;93809.78;;;41.62;26.51
36378;BME280;22402;42.746;23.606;2023-07-09T12:10:56;93802.75;;;42.45;25.22
36378;BME280;22402;42.746;23.606;2023-07-09T12:13:21;93810.09;;;42.53;24.46
36378;BME280;22402;42.746;23.606;2023-07-09T12:15:47;93809.91;;;41.27;25.45
36378;BME280;22402;42.746;23.606;2023-07-09T12:18:14;93813.19;;;39.73;27.55
36378;BME280;22402;42.746;23.606;2023-07-09T12:20:40;93805.84;;;38.71;29.08
36378;BME280;22402;42.746;23.606;2023-07-09T12:23:30;93793.38;;;38.34;30.50
36378;BME280;22402;42.746;23.606;2023-07-09T12:25:59;93797.53;;;39.38;29.89
36378;BME280;22402;42.746;23.606;2023-07-09T12:28:27;93790.78;;;40.63;27.83
36378;BME280;22402;42.746;23.606;2023-07-09T12:30:52;93797.91;;;41.02;27.33
36378;BME280;22402;42.746;23.606;2023-07-09T12:33:21;93797.88;;;40.46;27.74
36378;BME280;22402;42.746;23.606;2023-07-09T12:35:49;93798.50;;;39.34;28.89
36378;BME280;22402;42.746;23.606;2023-07-09T12:38:21;93794.44;;;38.24;29.81
36378;BME280;22402;42.746;23.606;2023-07-09T12:40:50;93789.03;;;37.74;30.97
36378;BME280;22402;42.746;23.606;2023-07-09T12:43:25;93788.06;;;37.14;32.12
36378;BME280;22402;42.746;23.606;2023-07-09T12:45:52;93785.38;;;36.35;33.84
36378;BME280;22402;42.746;23.606;2023-07-09T12:48:24;93788.25;;;36.25;33.79
36378;BME280;22402;42.746;23.606;2023-07-09T12:50:50;93788.88;;;37.43;32.43
36378;BME280;22402;42.746;23.606;2023-07-09T12:53:18;93781.44;;;38.88;30.83
36378;BME280;22402;42.746;23.606;2023-07-09T12:55:47;93784.47;;;39.18;29.69
36378;BME280;22402;42.746;23.606;2023-07-09T12:58:20;93782.28;;;38.44;30.72
36378;BME280;22402;42.746;23.606;2023-07-09T13:00:50;93779.56;;;37.71;31.04
36378;BME280;22402;42.746;23.606;2023-07-09T13:03:18;93782.78;;;36.90;32.30
36378;BME280;22402;42.746;23.606;2023-07-09T13:06:04;93773.28;;;35.90;34.03
36378;BME280;22402;42.746;23.606;2023-07-09T13:08:32;93772.06;;;35.39;34.51
36378;BME280;22402;42.746;23.606;2023-07-09T13:10:59;93783.84;;;36.10;33.49
36378;BME280;22402;42.746;23.606;2023-07-09T13:13:25;93780.59;;;37.20;32.44
36378;BME280;22402;42.746;23.606;2023-07-09T13:15:59;93778.19;;;38.33;30.66
36378;BME280;22402;42.746;23.606;2023-07-09T13:18:27;93783.59;;;38.78;28.97
36378;BME280;22402;42.746;23.606;2023-07-09T13:20:54;93781.00;;;38.41;29.14